sensor_id;sensor_type;location;lat;lon;timestamp;P1;durP1;ratioP1;P2;durP2;ratioP2
2408;SDS011;8463;48.094;7.970;2022-09-01T00:00:59;6.77;;;6.27;;
2408;SDS011;8463;48.094;7.970;2022-09-01T00:03:27;5.97;;;5.37;;
2408;SDS011;8463;48.094;7.970;2022-09-01T00:05:53;6.03;;;5.47;;
2408;SDS011;8463;48.094;7.970;2022-09-01T00:08:21;5.53;;;5.00;;
2408;SDS011;8463;48.094;7.970;2022-09-01T00:10:48;6.70;;;6.10;;
2408;SDS011;8463;48.094;7.970;2022-09-01T00:13:14;7.33;;;6.63;;
2408;SDS011;8463;48.094;7.970;2022-09-01T00:15:40;6.70;;;6.07;;
2408;SDS011;8463;48.094;7.970;2022-09-01T00:18:06;7.17;;;5.53;;
2408;SDS011;8463;48.094;7.970;2022-09-01T00:20:31;6.33;;;5.70;;
2408;SDS011;8463;48.094;7.970;2022-09-01T00:22:57;6.67;;;6.03;;
2408;SDS011;8463;48.094;7.970;2022-09-01T00:25:25;6.30;;;5.70;;
2408;SDS011;8463;48.094;7.970;2022-09-01T00:27:52;6.87;;;6.20;;
2408;SDS011;8463;48.094;7.970;2022-09-01T00:30:18;6.33;;;5.70;;
2408;SDS011;8463;48.094;7.970;2022-09-01T00:32:45;8.90;;;6.77;;
2408;SDS011;8463;48.094;7.970;2022-09-01T00:35:15;7.00;;;6.40;;
2408;SDS011;8463;48.094;7.970;2022-09-01T00:37:42;7.00;;;6.40;;
2408;SDS011;8463;48.094;7.970;2022-09-01T00:40:08;7.00;;;6.30;;
2408;SDS011;8463;48.094;7.970;2022-09-01T00:42:37;7.70;;;6.90;;
2408;SDS011;8463;48.094;7.970;2022-09-01T00:45:04;7.77;;;7.07;;
2408;SDS011;8463;48.094;7.970;2022-09-01T00:47:31;8.80;;;6.43;;
2408;SDS011;8463;48.094;7.970;2022-09-01T00:49:57;7.30;;;6.37;;
2408;SDS011;8463;48.094;7.970;2022-09-01T00:54:53;6.27;;;5.70;;
2408;SDS011;8463;48.094;7.970;2022-09-01T00:57:22;6.47;;;5.93;;
2408;SDS011;8463;48.094;7.970;2022-09-01T00:59:49;7.43;;;6.27;;
2408;SDS011;8463;48.094;7.970;2022-09-01T01:02:20;7.97;;;6.73;;
2408;SDS011;8463;48.094;7.970;2022-09-01T01:04:47;6.33;;;5.73;;
2408;SDS011;8463;48.094;7.970;2022-09-01T01:07:13;6.23;;;5.63;;
2408;SDS011;8463;48.094;7.970;2022-09-01T01:09:41;6.73;;;6.00;;
2408;SDS011;8463;48.094;7.970;2022-09-01T01:12:09;6.90;;;5.73;;
2408;SDS011;8463;48.094;7.970;2022-09-01T01:14:37;6.17;;;5.67;;
2408;SDS011;8463;48.094;7.970;2022-09-01T01:17:04;6.73;;;6.13;;
2408;SDS011;8463;48.094;7.970;2022-09-01T01:19:43;7.00;;;6.40;;
2408;SDS011;8463;48.094;7.970;2022-09-01T01:30:45;7.73;;;6.70;;
2408;SDS011;8463;48.094;7.970;2022-09-01T01:33:18;6.80;;;6.03;;
2408;SDS011;8463;48.094;7.970;2022-09-01T01:35:46;7.00;;;6.50;;
2408;SDS011;8463;48.094;7.970;2022-09-01T01:38:14;6.30;;;5.70;;
2408;SDS011;8463;48.094;7.970;2022-09-01T01:40:40;6.53;;;5.93;;
2408;SDS011;8463;48.094;7.970;2022-09-01T01:43:06;10.20;;;7.20;;
2408;SDS011;8463;48.094;7.970;2022-09-01T01:45:32;7.23;;;6.53;;
2408;SDS011;8463;48.094;7.970;2022-09-01T01:47:58;6.70;;;6.10;;
2408;SDS011;8463;48.094;7.970;2022-09-01T01:50:32;7.90;;;7.10;;
2408;SDS011;8463;48.094;7.970;2022-09-01T01:53:00;6.53;;;5.83;;
2408;SDS011;8463;48.094;7.970;2022-09-01T01:55:27;9.07;;;6.37;;
2408;SDS011;8463;48.094;7.970;2022-09-01T01:57:54;7.07;;;6.17;;
2408;SDS011;8463;48.094;7.970;2022-09-01T02:00:23;7.13;;;6.53;;
2408;SDS011;8463;48.094;7.970;2022-09-01T02:02:51;6.33;;;5.73;;
2408;SDS011;8463;48.094;7.970;2022-09-01T02:05:18;7.00;;;6.50;;
2408;SDS011;8463;48.094;7.970;2022-09-01T02:07:48;9.80;;;6.93;;
2408;SDS011;8463;48.094;7.970;2022-09-01T02:10:19;6.43;;;5.83;;
2408;SDS011;8463;48.094;7.970;2022-09-01T02:12:50;6.80;;;6.30;;
2408;SDS011;8463;48.094;7.970;2022-09-01T02:15:15;6.97;;;6.37;;
2408;SDS011;8463;48.094;7.970;2022-09-01T02:17:41;6.60;;;6.00;;
2408;SDS011;8463;48.094;7.970;2022-09-01T02:20:07;7.83;;;6.67;;
2408;SDS011;8463;48.094;7.970;2022-09-01T02:22:34;7.60;;;6.87;;
2408;SDS011;8463;48.094;7.970;2022-09-01T02:25:01;6.87;;;6.20;;
2408;SDS011;8463;48.094;7.970;2022-09-01T02:27:28;6.80;;;6.03;;
2408;SDS011;8463;48.094;7.970;2022-09-01T02:29:54;6.87;;;6.20;;
2408;SDS011;8463;48.094;7.970;2022-09-01T02:32:20;6.40;;;5.80;;
2408;SDS011;8463;48.094;7.970;2022-09-01T02:34:48;7.13;;;6.53;;
2408;SDS011;8463;48.094;7.970;2022-09-01T02:37:18;6.50;;;5.90;;
2408;SDS011;8463;48.094;7.970;2022-09-01T02:39:49;7.57;;;6.87;;
2408;SDS011;8463;48.094;7.970;2022-09-01T02:42:16;6.57;;;5.97;;
2408;SDS011;8463;48.094;7.970;2022-09-01T02:44:42;7.13;;;6.53;;
2408;SDS011;8463;48.094;7.970;2022-09-01T02:47:08;7.80;;;6.67;;
2408;SDS011;8463;48.094;7.970;2022-09-01T02:49:34;6.47;;;5.97;;
2408;SDS011;8463;48.094;7.970;2022-09-01T02:52:00;6.93;;;6.20;;
2408;SDS011;8463;48.094;7.970;2022-09-01T02:54:27;6.80;;;6.17;;
2408;SDS011;8463;48.094;7.970;2022-09-01T02:56:54;7.83;;;7.13;;
2408;SDS011;8463;48.094;7.970;2022-09-01T02:59:21;7.30;;;6.60;;
2408;SDS011;8463;48.094;7.970;2022-09-01T03:01:51;7.93;;;7.23;;
2408;SDS011;8463;48.094;7.970;2022-09-01T03:04:18;7.57;;;6.87;;
2408;SDS011;8463;48.094;7.970;2022-09-01T03:06:46;7.90;;;7.07;;
2408;SDS011;8463;48.094;7.970;2022-09-01T03:09:13;7.73;;;7.13;;
2408;SDS011;8463;48.094;7.970;2022-09-01T03:11:42;7.10;;;6.40;;
2408;SDS011;8463;48.094;7.970;2022-09-01T03:14:10;6.93;;;6.23;;
2408;SDS011;8463;48.094;7.970;2022-09-01T03:16:36;6.80;;;6.20;;
2408;SDS011;8463;48.094;7.970;2022-09-01T03:19:03;6.00;;;5.50;;
2408;SDS011;8463;48.094;7.970;2022-09-01T03:21:33;8.27;;;7.03;;
2408;SDS011;8463;48.094;7.970;2022-09-01T03:24:01;7.53;;;6.83;;
2408;SDS011;8463;48.094;7.970;2022-09-01T03:26:28;7.10;;;6.40;;
2408;SDS011;8463;48.094;7.970;2022-09-01T03:28:55;7.40;;;6.70;;
2408;SDS011;8463;48.094;7.970;2022-09-01T03:31:21;7.47;;;6.77;;
2408;SDS011;8463;48.094;7.970;2022-09-01T03:33:51;7.63;;;6.83;;
2408;SDS011;8463;48.094;7.970;2022-09-01T03:36:18;6.83;;;6.23;;
2408;SDS011;8463;48.094;7.970;2022-09-01T03:38:44;7.43;;;6.57;;
2408;SDS011;8463;48.094;7.970;2022-09-01T03:41:15;8.07;;;7.27;;
2408;SDS011;8463;48.094;7.970;2022-09-01T03:43:42;7.00;;;6.40;;
2408;SDS011;8463;48.094;7.970;2022-09-01T03:46:09;8.43;;;7.20;;
2408;SDS011;8463;48.094;7.970;2022-09-01T03:48:36;8.30;;;7.53;;
2408;SDS011;8463;48.094;7.970;2022-09-01T03:51:03;7.57;;;6.80;;
2408;SDS011;8463;48.094;7.970;2022-09-01T03:53:30;7.90;;;7.10;;
2408;SDS011;8463;48.094;7.970;2022-09-01T03:55:59;7.20;;;6.50;;
2408;SDS011;8463;48.094;7.970;2022-09-01T03:58:28;6.80;;;6.10;;
2408;SDS011;8463;48.094;7.970;2022-09-01T04:00:55;8.00;;;6.57;;
2408;SDS011;8463;48.094;7.970;2022-09-01T04:03:25;7.70;;;7.00;;
2408;SDS011;8463;48.094;7.970;2022-09-01T04:05:52;6.80;;;6.20;;
2408;SDS011;8463;48.094;7.970;2022-09-01T04:08:19;7.17;;;6.50;;
2408;SDS011;8463;48.094;7.970;2022-09-01T04:10:49;7.27;;;6.67;;
2408;SDS011;8463;48.094;7.970;2022-09-01T04:13:21;6.80;;;6.13;;
2408;SDS011;8463;48.094;7.970;2022-09-01T04:15:52;8.03;;;7.03;;
2408;SDS011;8463;48.094;7.970;2022-09-01T04:18:20;8.30;;;7.03;;
2408;SDS011;8463;48.094;7.970;2022-09-01T04:20:49;6.63;;;6.03;;
2408;SDS011;8463;48.094;7.970;2022-09-01T04:26:12;7.10;;;6.40;;
2408;SDS011;8463;48.094;7.970;2022-09-01T04:28:45;6.70;;;6.03;;
2408;SDS011;8463;48.094;7.970;2022-09-01T04:31:16;7.40;;;6.70;;
2408;SDS011;8463;48.094;7.970;2022-09-01T04:33:44;7.93;;;7.13;;
2408;SDS011;8463;48.094;7.970;2022-09-01T04:36:19;7.97;;;6.40;;
2408;SDS011;8463;48.094;7.970;2022-09-01T04:38:48;5.87;;;5.40;;
2408;SDS011;8463;48.094;7.970;2022-09-01T04:41:19;6.87;;;6.27;;
2408;SDS011;8463;48.094;7.970;2022-09-01T04:43:46;8.40;;;7.57;;
2408;SDS011;8463;48.094;7.970;2022-09-01T04:46:16;8.03;;;7.23;;
2408;SDS011;8463;48.094;7.970;2022-09-01T04:48:43;8.27;;;7.27;;
2408;SDS011;8463;48.094;7.970;2022-09-01T04:51:12;8.33;;;6.70;;
2408;SDS011;8463;48.094;7.970;2022-09-01T04:53:40;7.80;;;7.00;;
2408;SDS011;8463;48.094;7.970;2022-09-01T04:56:07;8.53;;;7.83;;
2408;SDS011;8463;48.094;7.970;2022-09-01T04:58:34;7.57;;;6.70;;
2408;SDS011;8463;48.094;7.970;2022-09-01T05:01:00;7.50;;;6.40;;
2408;SDS011;8463;48.094;7.970;2022-09-01T05:03:30;6.83;;;6.33;;
2408;SDS011;8463;48.094;7.970;2022-09-01T05:05:56;7.93;;;6.77;;
2408;SDS011;8463;48.094;7.970;2022-09-01T05:08:25;9.33;;;7.50;;
2408;SDS011;8463;48.094;7.970;2022-09-01T05:10:51;7.17;;;6.47;;
2408;SDS011;8463;48.094;7.970;2022-09-01T05:13:21;7.80;;;7.00;;
2408;SDS011;8463;48.094;7.970;2022-09-01T05:15:57;9.70;;;7.20;;
2408;SDS011;8463;48.094;7.970;2022-09-01T05:18:24;7.77;;;7.10;;
2408;SDS011;8463;48.094;7.970;2022-09-01T05:20:51;9.10;;;8.20;;
2408;SDS011;8463;48.094;7.970;2022-09-01T05:23:18;9.93;;;8.20;;
2408;SDS011;8463;48.094;7.970;2022-09-01T05:25:46;8.63;;;7.80;;
2408;SDS011;8463;48.094;7.970;2022-09-01T05:28:14;8.57;;;7.70;;
2408;SDS011;8463;48.094;7.970;2022-09-01T05:30:42;6.97;;;6.37;;
2408;SDS011;8463;48.094;7.970;2022-09-01T05:33:10;7.20;;;6.10;;
2408;SDS011;8463;48.094;7.970;2022-09-01T05:35:40;6.90;;;6.30;;
2408;SDS011;8463;48.094;7.970;2022-09-01T05:38:25;7.73;;;6.00;;
2408;SDS011;8463;48.094;7.970;2022-09-01T05:40:55;6.50;;;6.00;;
2408;SDS011;8463;48.094;7.970;2022-09-01T05:43:22;7.93;;;7.30;;
2408;SDS011;8463;48.094;7.970;2022-09-01T05:45:48;6.67;;;6.07;;
2408;SDS011;8463;48.094;7.970;2022-09-01T05:48:13;12.07;;;5.80;;
2408;SDS011;8463;48.094;7.970;2022-09-01T05:50:41;7.20;;;5.57;;
2408;SDS011;8463;48.094;7.970;2022-09-01T05:53:11;6.20;;;5.70;;
2408;SDS011;8463;48.094;7.970;2022-09-01T05:55:44;6.43;;;5.80;;
2408;SDS011;8463;48.094;7.970;2022-09-01T05:58:13;7.27;;;6.47;;
2408;SDS011;8463;48.094;7.970;2022-09-01T06:00:41;8.60;;;6.40;;
2408;SDS011;8463;48.094;7.970;2022-09-01T06:03:11;6.37;;;5.43;;
2408;SDS011;8463;48.094;7.970;2022-09-01T06:05:38;6.57;;;5.97;;
2408;SDS011;8463;48.094;7.970;2022-09-01T06:08:05;6.10;;;5.50;;
2408;SDS011;8463;48.094;7.970;2022-09-01T06:10:35;6.00;;;5.60;;
2408;SDS011;8463;48.094;7.970;2022-09-01T06:13:03;7.40;;;6.70;;
2408;SDS011;8463;48.094;7.970;2022-09-01T06:15:30;6.83;;;6.20;;
2408;SDS011;8463;48.094;7.970;2022-09-01T06:17:57;5.57;;;5.10;;
2408;SDS011;8463;48.094;7.970;2022-09-01T06:20:23;5.63;;;5.07;;
2408;SDS011;8463;48.094;7.970;2022-09-01T06:22:50;7.40;;;6.53;;
2408;SDS011;8463;48.094;7.970;2022-09-01T06:25:16;9.17;;;5.87;;
2408;SDS011;8463;48.094;7.970;2022-09-01T06:27:43;6.60;;;6.10;;
2408;SDS011;8463;48.094;7.970;2022-09-01T06:30:10;6.27;;;5.77;;
2408;SDS011;8463;48.094;7.970;2022-09-01T06:32:43;6.43;;;5.70;;
2408;SDS011;8463;48.094;7.970;2022-09-01T06:35:12;5.53;;;5.13;;
2408;SDS011;8463;48.094;7.970;2022-09-01T06:37:42;6.70;;;6.00;;
2408;SDS011;8463;48.094;7.970;2022-09-01T06:40:10;6.83;;;6.13;;
2408;SDS011;8463;48.094;7.970;2022-09-01T06:42:46;6.27;;;5.67;;
2408;SDS011;8463;48.094;7.970;2022-09-01T06:45:15;6.47;;;5.83;;
2408;SDS011;8463;48.094;7.970;2022-09-01T06:47:43;8.50;;;7.70;;
2408;SDS011;8463;48.094;7.970;2022-09-01T06:50:11;5.97;;;5.47;;
2408;SDS011;8463;48.094;7.970;2022-09-01T06:52:39;6.57;;;6.00;;
2408;SDS011;8463;48.094;7.970;2022-09-01T06:55:06;5.30;;;4.80;;
2408;SDS011;8463;48.094;7.970;2022-09-01T06:57:32;6.17;;;5.67;;
2408;SDS011;8463;48.094;7.970;2022-09-01T07:00:03;5.93;;;5.43;;
2408;SDS011;8463;48.094;7.970;2022-09-01T07:02:44;5.80;;;5.30;;
2408;SDS011;8463;48.094;7.970;2022-09-01T07:05:11;7.30;;;6.60;;
2408;SDS011;8463;48.094;7.970;2022-09-01T07:07:41;6.73;;;5.80;;
2408;SDS011;8463;48.094;7.970;2022-09-01T07:10:13;7.30;;;6.60;;
2408;SDS011;8463;48.094;7.970;2022-09-01T07:12:39;6.07;;;5.57;;
2408;SDS011;8463;48.094;7.970;2022-09-01T07:15:09;7.10;;;6.40;;
2408;SDS011;8463;48.094;7.970;2022-09-01T07:17:39;6.37;;;5.77;;
2408;SDS011;8463;48.094;7.970;2022-09-01T07:20:06;6.97;;;6.30;;
2408;SDS011;8463;48.094;7.970;2022-09-01T07:22:34;5.50;;;5.00;;
2408;SDS011;8463;48.094;7.970;2022-09-01T07:24:59;6.43;;;5.87;;
2408;SDS011;8463;48.094;7.970;2022-09-01T07:27:26;5.63;;;5.03;;
2408;SDS011;8463;48.094;7.970;2022-09-01T07:29:52;7.07;;;6.20;;
2408;SDS011;8463;48.094;7.970;2022-09-01T07:32:20;4.87;;;4.47;;
2408;SDS011;8463;48.094;7.970;2022-09-01T07:34:46;4.87;;;4.47;;
2408;SDS011;8463;48.094;7.970;2022-09-01T07:37:11;5.80;;;5.27;;
2408;SDS011;8463;48.094;7.970;2022-09-01T07:39:37;5.63;;;5.20;;
2408;SDS011;8463;48.094;7.970;2022-09-01T07:42:08;5.00;;;4.53;;
2408;SDS011;8463;48.094;7.970;2022-09-01T07:44:36;4.10;;;3.70;;
2408;SDS011;8463;48.094;7.970;2022-09-01T07:47:03;5.90;;;5.40;;
2408;SDS011;8463;48.094;7.970;2022-09-01T07:49:32;4.53;;;3.87;;
2408;SDS011;8463;48.094;7.970;2022-09-01T07:52:02;4.80;;;4.37;;
2408;SDS011;8463;48.094;7.970;2022-09-01T07:54:31;5.10;;;4.70;;
2408;SDS011;8463;48.094;7.970;2022-09-01T07:56:58;5.00;;;4.37;;
2408;SDS011;8463;48.094;7.970;2022-09-01T07:59:25;4.57;;;4.17;;
2408;SDS011;8463;48.094;7.970;2022-09-01T08:01:53;4.27;;;3.87;;
2408;SDS011;8463;48.094;7.970;2022-09-01T08:04:20;3.97;;;3.63;;
2408;SDS011;8463;48.094;7.970;2022-09-01T08:06:47;4.57;;;4.13;;
2408;SDS011;8463;48.094;7.970;2022-09-01T08:09:13;3.60;;;3.30;;
2408;SDS011;8463;48.094;7.970;2022-09-01T08:11:39;3.97;;;3.17;;
2408;SDS011;8463;48.094;7.970;2022-09-01T08:14:05;3.63;;;3.30;;
2408;SDS011;8463;48.094;7.970;2022-09-01T08:16:31;4.03;;;3.73;;
2408;SDS011;8463;48.094;7.970;2022-09-01T08:18:57;4.57;;;4.17;;
2408;SDS011;8463;48.094;7.970;2022-09-01T08:21:23;4.80;;;3.17;;
2408;SDS011;8463;48.094;7.970;2022-09-01T08:23:50;3.37;;;3.07;;
2408;SDS011;8463;48.094;7.970;2022-09-01T08:26:20;4.97;;;3.87;;
2408;SDS011;8463;48.094;7.970;2022-09-01T08:28:47;3.23;;;3.03;;
2408;SDS011;8463;48.094;7.970;2022-09-01T08:31:14;3.20;;;2.90;;
2408;SDS011;8463;48.094;7.970;2022-09-01T08:33:42;3.47;;;3.17;;
2408;SDS011;8463;48.094;7.970;2022-09-01T08:36:11;4.67;;;2.93;;
2408;SDS011;8463;48.094;7.970;2022-09-01T08:38:38;3.47;;;3.27;;
2408;SDS011;8463;48.094;7.970;2022-09-01T08:41:05;3.00;;;2.80;;
2408;SDS011;8463;48.094;7.970;2022-09-01T08:43:54;3.10;;;2.90;;
2408;SDS011;8463;48.094;7.970;2022-09-01T08:46:29;4.50;;;3.47;;
2408;SDS011;8463;48.094;7.970;2022-09-01T08:49:03;3.80;;;3.50;;
2408;SDS011;8463;48.094;7.970;2022-09-01T08:51:59;3.90;;;3.60;;
2408;SDS011;8463;48.094;7.970;2022-09-01T08:54:49;3.67;;;3.40;;
2408;SDS011;8463;48.094;7.970;2022-09-01T08:57:23;4.10;;;3.10;;
2408;SDS011;8463;48.094;7.970;2022-09-01T09:00:01;3.27;;;3.00;;
2408;SDS011;8463;48.094;7.970;2022-09-01T09:10:59;3.13;;;2.83;;
2408;SDS011;8463;48.094;7.970;2022-09-01T09:13:34;3.10;;;2.60;;
2408;SDS011;8463;48.094;7.970;2022-09-01T09:16:30;3.37;;;3.17;;
2408;SDS011;8463;48.094;7.970;2022-09-01T09:21:44;3.00;;;2.70;;
2408;SDS011;8463;48.094;7.970;2022-09-01T09:24:13;3.47;;;3.17;;
2408;SDS011;8463;48.094;7.970;2022-09-01T09:26:54;3.50;;;3.20;;
2408;SDS011;8463;48.094;7.970;2022-09-01T09:29:23;3.43;;;2.97;;
2408;SDS011;8463;48.094;7.970;2022-09-01T09:32:00;2.77;;;2.57;;
2408;SDS011;8463;48.094;7.970;2022-09-01T09:34:35;3.50;;;3.20;;
2408;SDS011;8463;48.094;7.970;2022-09-01T09:40:01;3.10;;;2.80;;
2408;SDS011;8463;48.094;7.970;2022-09-01T09:42:36;3.30;;;3.10;;
2408;SDS011;8463;48.094;7.970;2022-09-01T09:45:05;3.30;;;3.00;;
2408;SDS011;8463;48.094;7.970;2022-09-01T09:47:44;3.70;;;3.40;;
2408;SDS011;8463;48.094;7.970;2022-09-01T09:50:16;4.47;;;4.03;;
2408;SDS011;8463;48.094;7.970;2022-09-01T09:52:43;3.90;;;3.50;;
2408;SDS011;8463;48.094;7.970;2022-09-01T09:57:48;3.67;;;3.37;;
2408;SDS011;8463;48.094;7.970;2022-09-01T10:00:20;4.73;;;4.33;;
2408;SDS011;8463;48.094;7.970;2022-09-01T10:02:53;4.33;;;3.60;;
2408;SDS011;8463;48.094;7.970;2022-09-01T10:08:09;3.50;;;3.03;;
2408;SDS011;8463;48.094;7.970;2022-09-01T10:10:50;3.37;;;3.07;;
2408;SDS011;8463;48.094;7.970;2022-09-01T10:13:17;4.13;;;2.73;;
2408;SDS011;8463;48.094;7.970;2022-09-01T10:15:49;3.83;;;3.50;;
2408;SDS011;8463;48.094;7.970;2022-09-01T10:18:21;4.30;;;3.90;;
2408;SDS011;8463;48.094;7.970;2022-09-01T10:20:57;3.90;;;3.60;;
2408;SDS011;8463;48.094;7.970;2022-09-01T10:23:45;4.13;;;3.73;;
2408;SDS011;8463;48.094;7.970;2022-09-01T10:26:34;3.87;;;3.27;;
2408;SDS011;8463;48.094;7.970;2022-09-01T10:31:37;4.07;;;3.77;;
2408;SDS011;8463;48.094;7.970;2022-09-01T10:34:05;3.83;;;3.50;;
2408;SDS011;8463;48.094;7.970;2022-09-01T10:36:34;4.50;;;4.10;;
2408;SDS011;8463;48.094;7.970;2022-09-01T10:39:01;4.20;;;3.43;;
2408;SDS011;8463;48.094;7.970;2022-09-01T10:41:48;4.10;;;3.80;;
2408;SDS011;8463;48.094;7.970;2022-09-01T10:47:41;4.00;;;3.70;;
2408;SDS011;8463;48.094;7.970;2022-09-01T10:55:08;4.33;;;3.93;;
2408;SDS011;8463;48.094;7.970;2022-09-01T10:57:57;5.30;;;3.20;;
2408;SDS011;8463;48.094;7.970;2022-09-01T11:00:45;4.00;;;3.70;;
2408;SDS011;8463;48.094;7.970;2022-09-01T11:08:20;3.47;;;3.20;;
2408;SDS011;8463;48.094;7.970;2022-09-01T11:11:01;3.60;;;3.30;;
2408;SDS011;8463;48.094;7.970;2022-09-01T11:13:50;3.57;;;3.27;;
2408;SDS011;8463;48.094;7.970;2022-09-01T11:16:25;4.80;;;4.40;;
2408;SDS011;8463;48.094;7.970;2022-09-01T11:18:55;3.80;;;3.50;;
2408;SDS011;8463;48.094;7.970;2022-09-01T11:22:04;4.20;;;3.90;;
2408;SDS011;8463;48.094;7.970;2022-09-01T11:30:55;4.10;;;3.80;;
2408;SDS011;8463;48.094;7.970;2022-09-01T11:33:28;4.80;;;4.40;;
2408;SDS011;8463;48.094;7.970;2022-09-01T11:36:15;3.67;;;3.37;;
2408;SDS011;8463;48.094;7.970;2022-09-01T11:44:25;3.80;;;3.50;;
2408;SDS011;8463;48.094;7.970;2022-09-01T11:46:58;3.70;;;3.40;;
2408;SDS011;8463;48.094;7.970;2022-09-01T11:49:28;5.30;;;4.23;;
2408;SDS011;8463;48.094;7.970;2022-09-01T11:51:55;5.00;;;4.60;;
2408;SDS011;8463;48.094;7.970;2022-09-01T11:54:24;4.23;;;3.90;;
2408;SDS011;8463;48.094;7.970;2022-09-01T11:56:51;4.77;;;4.13;;
2408;SDS011;8463;48.094;7.970;2022-09-01T11:59:34;4.27;;;3.97;;
2408;SDS011;8463;48.094;7.970;2022-09-01T12:02:02;4.47;;;4.07;;
2408;SDS011;8463;48.094;7.970;2022-09-01T12:04:34;6.30;;;3.80;;
2408;SDS011;8463;48.094;7.970;2022-09-01T12:09:35;3.93;;;3.63;;
2408;SDS011;8463;48.094;7.970;2022-09-01T12:12:06;4.33;;;4.00;;
2408;SDS011;8463;48.094;7.970;2022-09-01T12:15:01;4.57;;;4.10;;
2408;SDS011;8463;48.094;7.970;2022-09-01T12:17:41;4.07;;;3.77;;
2408;SDS011;8463;48.094;7.970;2022-09-01T12:23:00;3.50;;;3.20;;
2408;SDS011;8463;48.094;7.970;2022-09-01T12:25:27;7.30;;;3.60;;
2408;SDS011;8463;48.094;7.970;2022-09-01T12:28:01;3.40;;;3.20;;
2408;SDS011;8463;48.094;7.970;2022-09-01T12:30:28;4.43;;;4.00;;
2408;SDS011;8463;48.094;7.970;2022-09-01T12:32:59;4.10;;;3.70;;
2408;SDS011;8463;48.094;7.970;2022-09-01T12:35:26;3.93;;;3.53;;
2408;SDS011;8463;48.094;7.970;2022-09-01T12:37:52;3.40;;;3.10;;
2408;SDS011;8463;48.094;7.970;2022-09-01T12:40:54;4.90;;;3.03;;
2408;SDS011;8463;48.094;7.970;2022-09-01T12:43:37;3.77;;;3.37;;
2408;SDS011;8463;48.094;7.970;2022-09-01T12:46:05;3.00;;;2.80;;
2408;SDS011;8463;48.094;7.970;2022-09-01T12:48:36;2.93;;;2.73;;
2408;SDS011;8463;48.094;7.970;2022-09-01T12:51:24;3.37;;;3.07;;
2408;SDS011;8463;48.094;7.970;2022-09-01T12:53:59;3.80;;;3.50;;
2408;SDS011;8463;48.094;7.970;2022-09-01T12:56:29;3.63;;;3.20;;
2408;SDS011;8463;48.094;7.970;2022-09-01T12:59:12;3.60;;;3.30;;
2408;SDS011;8463;48.094;7.970;2022-09-01T13:01:39;4.37;;;3.00;;
2408;SDS011;8463;48.094;7.970;2022-09-01T13:04:23;3.50;;;3.10;;
2408;SDS011;8463;48.094;7.970;2022-09-01T13:07:05;2.43;;;2.27;;
2408;SDS011;8463;48.094;7.970;2022-09-01T13:09:31;2.90;;;2.70;;
2408;SDS011;8463;48.094;7.970;2022-09-01T13:12:10;4.00;;;3.07;;
2408;SDS011;8463;48.094;7.970;2022-09-01T13:14:44;3.40;;;3.20;;
2408;SDS011;8463;48.094;7.970;2022-09-01T13:17:10;3.10;;;2.80;;
2408;SDS011;8463;48.094;7.970;2022-09-01T13:19:36;3.23;;;3.03;;
2408;SDS011;8463;48.094;7.970;2022-09-01T13:22:03;3.57;;;3.27;;
2408;SDS011;8463;48.094;7.970;2022-09-01T13:24:29;2.83;;;2.57;;
2408;SDS011;8463;48.094;7.970;2022-09-01T13:26:54;3.60;;;3.30;;
2408;SDS011;8463;48.094;7.970;2022-09-01T13:29:21;3.10;;;2.90;;
2408;SDS011;8463;48.094;7.970;2022-09-01T13:31:48;4.50;;;2.73;;
2408;SDS011;8463;48.094;7.970;2022-09-01T13:34:14;3.73;;;2.90;;
2408;SDS011;8463;48.094;7.970;2022-09-01T13:36:40;3.00;;;2.80;;
2408;SDS011;8463;48.094;7.970;2022-09-01T13:39:05;3.43;;;2.90;;
2408;SDS011;8463;48.094;7.970;2022-09-01T13:41:31;2.60;;;2.40;;
2408;SDS011;8463;48.094;7.970;2022-09-01T13:43:56;2.17;;;2.00;;
2408;SDS011;8463;48.094;7.970;2022-09-01T13:46:22;2.37;;;2.27;;
2408;SDS011;8463;48.094;7.970;2022-09-01T13:48:48;2.17;;;2.07;;
2408;SDS011;8463;48.094;7.970;2022-09-01T13:51:23;2.63;;;2.43;;
2408;SDS011;8463;48.094;7.970;2022-09-01T13:53:52;2.27;;;2.10;;
2408;SDS011;8463;48.094;7.970;2022-09-01T13:56:18;2.30;;;2.10;;
2408;SDS011;8463;48.094;7.970;2022-09-01T13:58:44;2.10;;;2.00;;
2408;SDS011;8463;48.094;7.970;2022-09-01T14:01:09;4.23;;;2.73;;
2408;SDS011;8463;48.094;7.970;2022-09-01T14:03:37;2.20;;;2.00;;
2408;SDS011;8463;48.094;7.970;2022-09-01T14:06:03;2.50;;;2.30;;
2408;SDS011;8463;48.094;7.970;2022-09-01T14:08:30;1.90;;;1.80;;
2408;SDS011;8463;48.094;7.970;2022-09-01T14:10:57;2.40;;;2.10;;
2408;SDS011;8463;48.094;7.970;2022-09-01T14:13:27;2.40;;;2.20;;
2408;SDS011;8463;48.094;7.970;2022-09-01T14:15:52;2.10;;;1.90;;
2408;SDS011;8463;48.094;7.970;2022-09-01T14:18:19;2.33;;;2.23;;
2408;SDS011;8463;48.094;7.970;2022-09-01T14:20:46;2.30;;;2.10;;
2408;SDS011;8463;48.094;7.970;2022-09-01T14:23:15;2.70;;;2.50;;
2408;SDS011;8463;48.094;7.970;2022-09-01T14:25:46;1.73;;;1.63;;
2408;SDS011;8463;48.094;7.970;2022-09-01T14:28:13;1.83;;;1.73;;
2408;SDS011;8463;48.094;7.970;2022-09-01T14:30:40;1.80;;;1.70;;
2408;SDS011;8463;48.094;7.970;2022-09-01T14:33:07;2.03;;;1.93;;
2408;SDS011;8463;48.094;7.970;2022-09-01T14:35:35;2.00;;;1.90;;
2408;SDS011;8463;48.094;7.970;2022-09-01T14:38:06;2.40;;;2.20;;
2408;SDS011;8463;48.094;7.970;2022-09-01T14:40:33;2.60;;;2.13;;
2408;SDS011;8463;48.094;7.970;2022-09-01T14:43:01;2.10;;;1.97;;
2408;SDS011;8463;48.094;7.970;2022-09-01T14:45:27;2.33;;;1.80;;
2408;SDS011;8463;48.094;7.970;2022-09-01T14:47:54;2.00;;;1.90;;
2408;SDS011;8463;48.094;7.970;2022-09-01T14:50:22;2.20;;;1.93;;
2408;SDS011;8463;48.094;7.970;2022-09-01T14:52:52;2.20;;;2.00;;
2408;SDS011;8463;48.094;7.970;2022-09-01T14:55:23;2.00;;;1.90;;
2408;SDS011;8463;48.094;7.970;2022-09-01T14:57:50;2.13;;;2.03;;
2408;SDS011;8463;48.094;7.970;2022-09-01T15:00:16;1.43;;;1.33;;
2408;SDS011;8463;48.094;7.970;2022-09-01T15:02:43;1.80;;;1.70;;
2408;SDS011;8463;48.094;7.970;2022-09-01T15:05:10;2.53;;;2.33;;
2408;SDS011;8463;48.094;7.970;2022-09-01T15:07:36;1.70;;;1.60;;
2408;SDS011;8463;48.094;7.970;2022-09-01T15:10:03;2.10;;;1.90;;
2408;SDS011;8463;48.094;7.970;2022-09-01T15:12:30;1.70;;;1.60;;
2408;SDS011;8463;48.094;7.970;2022-09-01T15:14:56;2.03;;;1.87;;
2408;SDS011;8463;48.094;7.970;2022-09-01T15:17:23;2.17;;;2.00;;
2408;SDS011;8463;48.094;7.970;2022-09-01T15:19:50;2.10;;;2.00;;
2408;SDS011;8463;48.094;7.970;2022-09-01T15:22:16;2.10;;;2.00;;
2408;SDS011;8463;48.094;7.970;2022-09-01T15:24:41;2.47;;;2.27;;
2408;SDS011;8463;48.094;7.970;2022-09-01T15:27:07;2.03;;;1.90;;
2408;SDS011;8463;48.094;7.970;2022-09-01T15:29:35;2.40;;;1.90;;
2408;SDS011;8463;48.094;7.970;2022-09-01T15:32:10;1.70;;;1.60;;
2408;SDS011;8463;48.094;7.970;2022-09-01T15:34:36;3.30;;;1.60;;
2408;SDS011;8463;48.094;7.970;2022-09-01T15:37:05;2.00;;;1.87;;
2408;SDS011;8463;48.094;7.970;2022-09-01T15:39:31;2.63;;;1.80;;
2408;SDS011;8463;48.094;7.970;2022-09-01T15:41:57;1.80;;;1.60;;
2408;SDS011;8463;48.094;7.970;2022-09-01T15:44:23;2.30;;;2.10;;
2408;SDS011;8463;48.094;7.970;2022-09-01T15:46:48;2.03;;;1.83;;
2408;SDS011;8463;48.094;7.970;2022-09-01T15:49:14;1.80;;;1.70;;
2408;SDS011;8463;48.094;7.970;2022-09-01T15:51:43;1.97;;;1.77;;
2408;SDS011;8463;48.094;7.970;2022-09-01T15:54:11;2.17;;;1.97;;
2408;SDS011;8463;48.094;7.970;2022-09-01T15:56:39;2.33;;;2.13;;
2408;SDS011;8463;48.094;7.970;2022-09-01T15:59:05;2.40;;;2.20;;
2408;SDS011;8463;48.094;7.970;2022-09-01T16:01:33;2.40;;;2.20;;
2408;SDS011;8463;48.094;7.970;2022-09-01T16:04:00;2.27;;;2.17;;
2408;SDS011;8463;48.094;7.970;2022-09-01T16:06:27;2.00;;;1.90;;
2408;SDS011;8463;48.094;7.970;2022-09-01T16:08:53;2.37;;;2.00;;
2408;SDS011;8463;48.094;7.970;2022-09-01T16:11:22;2.40;;;2.20;;
2408;SDS011;8463;48.094;7.970;2022-09-01T16:13:49;3.00;;;2.47;;
2408;SDS011;8463;48.094;7.970;2022-09-01T16:19:23;2.40;;;2.10;;
2408;SDS011;8463;48.094;7.970;2022-09-01T16:24:26;2.17;;;2.00;;
2408;SDS011;8463;48.094;7.970;2022-09-01T16:26:52;2.00;;;1.90;;
2408;SDS011;8463;48.094;7.970;2022-09-01T16:31:55;2.80;;;2.60;;
2408;SDS011;8463;48.094;7.970;2022-09-01T16:34:21;2.30;;;2.10;;
2408;SDS011;8463;48.094;7.970;2022-09-01T16:36:49;2.10;;;2.00;;
2408;SDS011;8463;48.094;7.970;2022-09-01T16:39:33;2.20;;;2.10;;
2408;SDS011;8463;48.094;7.970;2022-09-01T16:42:22;2.33;;;2.20;;
2408;SDS011;8463;48.094;7.970;2022-09-01T16:53:26;3.80;;;2.10;;